Aviation Digital Data Service (ADDS)

Output produced by METARs form (0625 UTC 05 August 2015)
found at http://aviationweather.gov/adds/metars/
 
KLGA 050522Z 0506/0606 02004KT P6SM FEW250 
     FM051400 32010KT P6SM SCT040 
     FM051700 29011G18KT P6SM SCT050 
     FM052000 30013G21KT P6SM SCT050 
     FM060200 33009KT P6SM FEW050